createdAt,value
2023-05-12T00:00:16.632Z,45.70
2023-05-12T00:02:43.618Z,41.83
2023-05-12T00:05:10.613Z,42.23
2023-05-12T00:07:37.669Z,38.77
2023-05-12T00:10:04.952Z,36.90
2023-05-12T00:12:32.468Z,36.93
2023-05-12T00:14:59.301Z,34.97
2023-05-12T00:17:28.102Z,31.03
2023-05-12T00:19:55.135Z,29.40
2023-05-12T00:22:22.097Z,28.97
2023-05-12T00:24:49.024Z,29.20
2023-05-12T00:27:15.996Z,29.50
2023-05-12T00:29:43.012Z,28.93
2023-05-12T00:32:09.869Z,27.30
2023-05-12T00:34:37.080Z,26.23
2023-05-12T00:37:04.191Z,24.27
2023-05-12T00:39:38.486Z,23.67
2023-05-12T00:42:05.774Z,22.70
2023-05-12T00:44:32.797Z,20.73
2023-05-12T00:47:00.221Z,18.80
2023-05-12T00:49:28.052Z,17.40
2023-05-12T00:51:56.200Z,16.40
2023-05-12T00:54:23.437Z,15.90
2023-05-12T00:56:50.238Z,14.17
2023-05-12T00:59:17.082Z,14.00
2023-05-12T01:01:44.650Z,11.93
2023-05-12T01:04:11.727Z,12.03
2023-05-12T01:06:44.313Z,11.17
2023-05-12T01:09:11.797Z,10.87
2023-05-12T01:11:38.679Z,10.70
2023-05-12T01:14:06.200Z,10.27
2023-05-12T01:16:41.498Z,9.60
2023-05-12T01:19:15.363Z,10.10
2023-05-12T01:21:42.236Z,8.77
2023-05-12T01:24:10.725Z,8.90
2023-05-12T01:26:38.056Z,9.00
2023-05-12T01:29:06.400Z,8.50
2023-05-12T01:31:33.740Z,8.53
2023-05-12T01:34:01.014Z,8.17
2023-05-12T01:36:27.944Z,7.90
2023-05-12T01:38:55.703Z,7.87
2023-05-12T01:41:22.772Z,7.57
2023-05-12T01:43:52.214Z,6.93
2023-05-12T01:46:19.078Z,7.07
2023-05-12T01:48:45.952Z,6.57
2023-05-12T01:51:13.105Z,6.40
2023-05-12T01:53:40.169Z,6.63
2023-05-12T01:56:07.167Z,6.40
2023-05-12T01:58:34.420Z,6.33
2023-05-12T02:01:01.283Z,6.10
2023-05-12T02:03:28.330Z,6.83
2023-05-12T02:05:55.218Z,6.60
2023-05-12T02:08:22.024Z,6.07
2023-05-12T02:10:48.826Z,6.37
2023-05-12T02:13:15.788Z,6.57
2023-05-12T02:15:42.873Z,6.40
2023-05-12T02:18:09.745Z,6.70
2023-05-12T02:20:36.818Z,6.30
2023-05-12T02:23:03.621Z,6.30
2023-05-12T02:25:30.408Z,7.30
2023-05-12T02:27:57.299Z,6.37
2023-05-12T02:30:24.188Z,6.40
2023-05-12T02:32:51.201Z,7.23
2023-05-12T02:35:18.278Z,6.07
2023-05-12T02:37:45.183Z,6.03
2023-05-12T02:40:12.534Z,6.50
2023-05-12T02:42:40.511Z,6.37
2023-05-12T02:45:08.185Z,6.30
2023-05-12T02:47:35.103Z,6.47
2023-05-12T02:50:02.545Z,6.43
2023-05-12T02:52:29.460Z,6.13
2023-05-12T02:54:57.198Z,6.13
2023-05-12T02:57:24.230Z,6.50
2023-05-12T02:59:51.217Z,6.20
2023-05-12T03:02:18.198Z,5.97
2023-05-12T03:04:45.381Z,6.60
2023-05-12T03:07:12.403Z,7.03
2023-05-12T03:09:39.360Z,6.53
2023-05-12T03:12:16.130Z,7.07
2023-05-12T03:14:43.030Z,7.80
2023-05-12T03:17:09.833Z,7.50
2023-05-12T03:19:37.797Z,7.27
2023-05-12T03:22:07.474Z,6.90
2023-05-12T03:24:34.955Z,7.13
2023-05-12T03:27:01.895Z,6.80
2023-05-12T03:29:28.942Z,7.23
2023-05-12T03:31:55.860Z,6.60
2023-05-12T03:34:23.251Z,6.17
2023-05-12T03:36:50.272Z,6.13
2023-05-12T03:39:17.253Z,6.57
2023-05-12T03:41:44.138Z,6.10
2023-05-12T03:44:12.493Z,6.23
2023-05-12T03:46:39.618Z,5.90
2023-05-12T03:49:06.771Z,5.77
2023-05-12T03:51:33.650Z,6.13
2023-05-12T03:54:00.609Z,6.07
2023-05-12T03:56:28.824Z,6.50
2023-05-12T03:58:55.766Z,6.07
2023-05-12T04:01:22.771Z,6.10
2023-05-12T04:03:49.769Z,6.67
2023-05-12T04:06:16.847Z,6.23
2023-05-12T04:08:43.751Z,6.20
2023-05-12T04:11:10.899Z,6.20
2023-05-12T04:13:37.960Z,5.83
2023-05-12T04:16:05.528Z,5.90
2023-05-12T04:18:34.924Z,6.10
2023-05-12T04:21:02.010Z,6.00
2023-05-12T04:23:29.768Z,6.00
2023-05-12T04:25:57.084Z,6.07
2023-05-12T04:28:24.102Z,5.97
2023-05-12T04:30:51.018Z,5.83
2023-05-12T04:33:17.917Z,6.20
2023-05-12T04:35:44.848Z,6.03
2023-05-12T04:38:11.805Z,4.80
2023-05-12T04:40:38.714Z,5.70
2023-05-12T04:43:05.662Z,5.70
2023-05-12T04:45:32.471Z,5.90
2023-05-12T04:47:59.515Z,5.33
2023-05-12T04:50:27.065Z,5.60
2023-05-12T04:52:53.794Z,5.60
2023-05-12T04:55:21.174Z,5.90
2023-05-12T04:57:48.304Z,5.60
2023-05-12T05:00:15.713Z,5.20
2023-05-12T05:02:42.725Z,5.77
2023-05-12T05:05:10.090Z,5.93
2023-05-12T05:07:37.410Z,5.97
2023-05-12T05:10:04.668Z,5.40
2023-05-12T05:12:31.542Z,5.53
2023-05-12T05:14:58.464Z,6.13
2023-05-12T05:17:25.442Z,5.87
2023-05-12T05:19:58.385Z,5.60
2023-05-12T05:22:26.507Z,5.53
2023-05-12T05:24:53.256Z,6.37
2023-05-12T05:27:20.346Z,5.90
2023-05-12T05:29:47.552Z,5.53
2023-05-12T05:32:14.405Z,5.87
2023-05-12T05:34:41.424Z,5.90
2023-05-12T05:37:08.922Z,5.90
2023-05-12T05:39:35.832Z,5.80
2023-05-12T05:42:02.694Z,5.83
2023-05-12T05:44:29.576Z,5.70
2023-05-12T05:46:56.600Z,5.90
2023-05-12T05:49:23.504Z,6.00
2023-05-12T05:51:50.469Z,5.90
2023-05-12T05:54:17.368Z,5.33
2023-05-12T05:56:44.486Z,5.60
2023-05-12T05:59:11.612Z,5.90
2023-05-12T06:01:38.784Z,6.40
2023-05-12T06:04:06.118Z,5.80
2023-05-12T06:06:33.036Z,6.00
2023-05-12T06:09:00.010Z,5.43
2023-05-12T06:11:28.343Z,5.73
2023-05-12T06:13:55.223Z,7.53
2023-05-12T06:16:22.142Z,5.43
2023-05-12T06:18:49.296Z,5.90
2023-05-12T06:21:16.149Z,5.50
2023-05-12T06:23:43.405Z,4.90
2023-05-12T06:26:10.428Z,5.47
2023-05-12T06:28:37.381Z,5.70
2023-05-12T06:31:08.809Z,5.07
2023-05-12T06:33:35.935Z,4.87
2023-05-12T06:36:03.099Z,4.93
2023-05-12T06:38:30.069Z,5.30
2023-05-12T06:40:56.908Z,5.27
2023-05-12T06:43:24.045Z,4.63
2023-05-12T06:45:51.447Z,5.60
2023-05-12T06:48:18.495Z,4.70
2023-05-12T06:50:46.189Z,4.83
2023-05-12T06:53:13.154Z,4.87
2023-05-12T06:55:40.509Z,4.63
2023-05-12T06:58:07.588Z,5.17
2023-05-12T07:00:34.460Z,4.73
2023-05-12T07:03:01.424Z,4.80
2023-05-12T07:05:28.545Z,4.53
2023-05-12T07:07:55.697Z,4.70
2023-05-12T07:10:22.503Z,4.50
2023-05-12T07:12:49.515Z,4.43
2023-05-12T07:15:16.528Z,4.57
2023-05-12T07:17:43.609Z,4.40
2023-05-12T07:20:10.721Z,4.30
2023-05-12T07:22:39.026Z,4.67
2023-05-12T07:25:07.905Z,4.53
2023-05-12T07:27:35.384Z,4.10
2023-05-12T07:30:02.238Z,4.60
2023-05-12T07:32:29.164Z,4.50
2023-05-12T07:34:56.640Z,4.73
2023-05-12T07:37:24.373Z,5.00
2023-05-12T07:39:51.868Z,4.90
2023-05-12T07:42:18.797Z,4.80
2023-05-12T07:44:45.917Z,4.67
2023-05-12T07:47:12.919Z,4.60
2023-05-12T07:49:40.242Z,4.40
2023-05-12T07:52:07.281Z,4.47
2023-05-12T07:54:34.090Z,4.47
2023-05-12T07:57:01.169Z,4.03
2023-05-12T07:59:28.300Z,4.37
2023-05-12T08:01:55.532Z,4.43
2023-05-12T08:04:22.499Z,5.00
2023-05-12T08:06:49.604Z,4.23
2023-05-12T08:09:16.490Z,4.30
2023-05-12T08:11:47.061Z,4.50
2023-05-12T08:14:15.220Z,3.83
2023-05-12T08:16:45.665Z,4.13
2023-05-12T08:19:16.282Z,4.40
2023-05-12T08:21:43.530Z,4.50
2023-05-12T08:24:10.476Z,4.00
2023-05-12T08:26:37.338Z,4.37
2023-05-12T08:29:06.049Z,3.90
2023-05-12T08:31:33.241Z,3.97
2023-05-12T08:34:09.896Z,4.00
2023-05-12T08:36:39.150Z,3.63
2023-05-12T08:39:06.626Z,4.13
2023-05-12T08:42:07.397Z,3.73
2023-05-12T08:44:34.578Z,4.00
2023-05-12T08:47:04.268Z,3.67
2023-05-12T08:49:32.878Z,3.23
2023-05-12T08:52:01.737Z,3.53
2023-05-12T08:54:29.999Z,3.57
2023-05-12T08:59:27.796Z,3.50
2023-05-12T09:01:56.692Z,3.63
2023-05-12T09:04:23.645Z,3.50
2023-05-12T09:06:54.330Z,3.30
2023-05-12T09:09:23.770Z,3.30
2023-05-12T09:11:56.840Z,3.53
2023-05-12T09:14:26.121Z,3.57
2023-05-12T09:17:00.209Z,3.67
2023-05-12T09:19:27.510Z,3.33
2023-05-12T09:21:55.016Z,3.67
2023-05-12T09:24:33.671Z,3.40
2023-05-12T09:27:00.832Z,3.10
2023-05-12T09:29:31.925Z,3.07
2023-05-12T09:32:03.272Z,3.10
2023-05-12T09:34:41.601Z,2.90
2023-05-12T09:37:08.901Z,2.87
2023-05-12T09:39:36.971Z,3.07
2023-05-12T09:42:04.055Z,3.10
2023-05-12T09:44:32.347Z,2.93
2023-05-12T09:47:10.718Z,2.53
2023-05-12T09:49:38.540Z,2.70
2023-05-12T09:52:05.734Z,2.63
2023-05-12T09:54:34.645Z,3.00
2023-05-12T09:57:05.241Z,2.80
2023-05-12T09:59:34.565Z,2.43
2023-05-12T10:02:09.918Z,2.90
2023-05-12T10:04:47.862Z,2.63
2023-05-12T10:07:17.071Z,2.77
2023-05-12T10:09:48.645Z,2.60
2023-05-12T10:12:16.928Z,2.67
2023-05-12T10:14:44.320Z,2.70
2023-05-12T10:17:12.822Z,2.70
2023-05-12T10:19:42.300Z,3.13
2023-05-12T10:22:11.564Z,2.70
2023-05-12T10:24:40.860Z,2.50
2023-05-12T10:27:08.474Z,2.67
2023-05-12T10:29:36.007Z,2.60
2023-05-12T10:32:02.835Z,3.17
2023-05-12T10:34:38.060Z,3.00
2023-05-12T10:37:12.752Z,2.97
2023-05-12T10:39:50.754Z,2.57
2023-05-12T10:42:26.210Z,2.87
2023-05-12T10:44:54.892Z,2.70
2023-05-12T10:47:37.590Z,2.70
2023-05-12T10:50:05.015Z,2.50
2023-05-12T10:52:32.369Z,2.70
2023-05-12T10:55:39.275Z,2.77
2023-05-12T10:57:52.389Z,2.50
2023-05-12T11:00:24.936Z,2.53
2023-05-12T11:02:55.005Z,2.70
2023-05-12T11:05:34.787Z,2.30
2023-05-12T11:08:02.541Z,2.30
2023-05-12T11:10:31.219Z,2.87
2023-05-12T11:12:59.438Z,2.50
2023-05-12T11:15:27.707Z,2.47
2023-05-12T11:17:54.775Z,2.60
2023-05-12T11:20:27.577Z,2.63
2023-05-12T11:22:55.867Z,2.73
2023-05-12T11:25:23.000Z,3.13
2023-05-12T11:27:53.869Z,2.90
2023-05-12T11:30:21.620Z,2.90
2023-05-12T11:32:49.070Z,2.80
2023-05-12T11:35:18.794Z,2.80
2023-05-12T11:37:46.608Z,3.07
2023-05-12T11:40:18.704Z,2.43
2023-05-12T11:42:48.929Z,2.70
2023-05-12T11:45:22.998Z,2.40
2023-05-12T11:47:50.089Z,2.40
2023-05-12T11:50:24.878Z,2.37
2023-05-12T11:52:53.254Z,2.60
2023-05-12T11:55:25.668Z,2.40
2023-05-12T11:58:03.778Z,2.50
2023-05-12T12:00:35.610Z,2.33
2023-05-12T12:03:09.412Z,2.60
2023-05-12T12:05:36.724Z,2.40
2023-05-12T12:08:29.763Z,2.73
2023-05-12T12:11:01.353Z,2.70
2023-05-12T12:13:29.800Z,2.37
2023-05-12T12:15:56.728Z,2.57
2023-05-12T12:18:23.580Z,2.40
2023-05-12T12:20:50.613Z,2.47
2023-05-12T12:23:17.469Z,2.20
2023-05-12T12:25:44.356Z,2.43
2023-05-12T12:28:11.353Z,2.27
2023-05-12T12:30:38.805Z,2.43
2023-05-12T12:33:05.937Z,2.23
2023-05-12T12:35:32.922Z,2.40
2023-05-12T12:38:00.629Z,2.53
2023-05-12T12:40:27.888Z,2.57
2023-05-12T12:42:54.787Z,2.47
2023-05-12T12:45:22.107Z,2.30
2023-05-12T12:47:52.802Z,2.60
2023-05-12T12:50:20.008Z,2.33
2023-05-12T12:52:48.271Z,2.60
2023-05-12T12:55:15.495Z,2.40
2023-05-12T12:57:42.527Z,2.70
2023-05-12T13:00:10.276Z,2.57
2023-05-12T13:02:37.377Z,2.67
2023-05-12T13:05:06.192Z,2.60
2023-05-12T13:07:34.092Z,2.53
2023-05-12T13:10:01.073Z,2.50
2023-05-12T13:12:29.444Z,2.23
2023-05-12T13:14:56.347Z,2.77
2023-05-12T13:17:23.599Z,2.57
2023-05-12T13:19:50.647Z,2.70
2023-05-12T13:22:17.445Z,2.63
2023-05-12T13:24:44.677Z,2.70
2023-05-12T13:27:11.740Z,2.30
2023-05-12T13:29:38.907Z,2.53
2023-05-12T13:32:06.320Z,2.30
2023-05-12T13:34:33.542Z,2.80
2023-05-12T13:37:01.031Z,2.30
2023-05-12T13:39:28.055Z,2.50
2023-05-12T13:41:55.014Z,2.40
2023-05-12T13:44:21.842Z,2.70
2023-05-12T13:46:49.239Z,2.50
2023-05-12T13:49:16.749Z,2.47
2023-05-12T13:51:43.716Z,2.70
2023-05-12T13:54:10.759Z,2.43
2023-05-12T13:56:38.273Z,2.40
2023-05-12T13:59:09.618Z,2.50
2023-05-12T14:01:36.850Z,2.77
2023-05-12T14:04:04.149Z,2.13
2023-05-12T14:06:32.432Z,2.50
2023-05-12T14:08:59.588Z,2.73
2023-05-12T14:11:26.516Z,2.20
2023-05-12T14:13:53.787Z,2.73
2023-05-12T14:16:20.815Z,2.30
2023-05-12T14:18:48.298Z,2.90
2023-05-12T14:21:15.286Z,2.53
2023-05-12T14:23:42.114Z,2.57
2023-05-12T14:26:08.815Z,2.40
2023-05-12T14:28:35.978Z,2.73
2023-05-12T14:31:03.920Z,2.50
2023-05-12T14:33:31.662Z,2.50
2023-05-12T14:36:06.539Z,2.57
2023-05-12T14:38:34.845Z,2.30
2023-05-12T14:41:01.959Z,2.43
2023-05-12T14:43:28.890Z,2.40
2023-05-12T14:45:55.767Z,2.27
2023-05-12T14:48:23.719Z,2.60
2023-05-12T14:50:54.291Z,2.70
2023-05-12T14:53:21.493Z,2.30
2023-05-12T14:55:52.101Z,2.30
2023-05-12T14:58:19.546Z,2.20
2023-05-12T15:00:47.605Z,2.50
2023-05-12T15:03:15.007Z,2.40
2023-05-12T15:06:01.785Z,2.70
2023-05-12T15:08:29.472Z,2.00
2023-05-12T15:10:56.558Z,2.47
2023-05-12T15:13:23.425Z,2.80
2023-05-12T15:15:51.850Z,2.47
2023-05-12T15:18:21.126Z,2.20
2023-05-12T15:20:50.536Z,2.70
2023-05-12T15:23:17.531Z,2.70
2023-05-12T15:29:32.725Z,2.90
2023-05-12T15:31:59.668Z,2.60
2023-05-12T15:34:26.671Z,2.97
2023-05-12T15:36:53.714Z,3.07
2023-05-12T15:39:21.808Z,2.80
2023-05-12T15:41:50.780Z,3.20
2023-05-12T15:44:17.832Z,3.07
2023-05-12T15:46:45.070Z,3.30
2023-05-12T15:49:12.173Z,3.30
2023-05-12T15:51:39.190Z,3.70
2023-05-12T15:54:09.126Z,3.20
2023-05-12T15:56:36.562Z,3.60
2023-05-12T15:59:05.399Z,3.00
2023-05-12T16:01:32.531Z,3.33
2023-05-12T16:04:00.048Z,3.67
2023-05-12T16:06:27.502Z,3.43
2023-05-12T16:08:54.443Z,3.10
2023-05-12T16:11:21.521Z,3.17
2023-05-12T16:13:48.442Z,3.10
2023-05-12T16:16:15.560Z,3.00
2023-05-12T16:18:44.228Z,3.20
2023-05-12T16:21:13.073Z,3.37
2023-05-12T16:23:40.283Z,3.10
2023-05-12T16:26:07.192Z,4.03
2023-05-12T16:28:34.972Z,3.20
2023-05-12T16:31:03.647Z,3.17
2023-05-12T16:33:30.711Z,3.57
2023-05-12T16:36:00.791Z,3.40
2023-05-12T16:38:27.920Z,3.27
2023-05-12T16:40:54.880Z,3.50
2023-05-12T16:43:21.882Z,3.60
2023-05-12T16:45:59.317Z,3.20
2023-05-12T16:48:27.194Z,3.67
2023-05-12T16:51:07.889Z,3.50
2023-05-12T16:53:35.695Z,3.60
2023-05-12T16:56:02.760Z,3.37
2023-05-12T16:58:33.542Z,3.70
2023-05-12T17:01:01.457Z,3.77
2023-05-12T17:03:29.427Z,3.90
2023-05-12T17:05:56.565Z,3.93
2023-05-12T17:08:24.697Z,3.90
2023-05-12T17:10:52.006Z,3.90
2023-05-12T17:13:19.001Z,4.10
2023-05-12T17:15:46.173Z,4.03
2023-05-12T17:18:13.163Z,3.80
2023-05-12T17:20:40.049Z,3.67
2023-05-12T17:23:08.460Z,3.40
2023-05-12T17:25:36.927Z,3.60
2023-05-12T17:28:04.748Z,3.60
2023-05-12T17:30:32.450Z,3.27
2023-05-12T17:32:59.436Z,3.10
2023-05-12T17:35:26.352Z,3.47
2023-05-12T17:37:55.684Z,3.60
2023-05-12T17:40:23.251Z,3.60
2023-05-12T17:42:50.529Z,3.40
2023-05-12T17:45:19.312Z,3.20
2023-05-12T17:47:48.168Z,3.40
2023-05-12T17:50:15.429Z,3.60
2023-05-12T17:52:43.608Z,3.60
2023-05-12T17:55:10.473Z,4.03
2023-05-12T17:57:38.228Z,3.50
2023-05-12T18:00:10.678Z,3.70
2023-05-12T18:02:38.791Z,3.80
2023-05-12T18:05:06.679Z,3.93
2023-05-12T18:07:34.045Z,4.27
2023-05-12T18:10:01.192Z,4.00
2023-05-12T18:12:28.389Z,3.87
2023-05-12T18:14:55.513Z,4.00
2023-05-12T18:17:22.754Z,4.03
2023-05-12T18:19:50.242Z,3.40
2023-05-12T18:22:18.565Z,3.97
2023-05-12T18:24:45.844Z,3.70
2023-05-12T18:27:13.285Z,3.80
2023-05-12T18:29:40.414Z,3.87
2023-05-12T18:32:07.293Z,3.63
2023-05-12T18:34:34.972Z,3.60
2023-05-12T18:37:02.258Z,3.90
2023-05-12T18:39:29.188Z,3.73
2023-05-12T18:41:56.310Z,3.70
2023-05-12T18:44:23.493Z,3.60
2023-05-12T18:46:51.047Z,3.93
2023-05-12T18:49:18.276Z,3.77
2023-05-12T18:51:45.222Z,3.77
2023-05-12T18:54:12.323Z,3.97
2023-05-12T18:56:39.168Z,4.10
2023-05-12T18:59:06.214Z,3.60
2023-05-12T19:01:34.037Z,3.90
2023-05-12T19:04:01.048Z,3.63
2023-05-12T19:06:28.294Z,3.53
2023-05-12T19:08:55.222Z,3.83
2023-05-12T19:11:22.493Z,4.23
2023-05-12T19:13:51.085Z,4.80
2023-05-12T19:16:18.427Z,6.70
2023-05-12T19:18:46.247Z,6.60
2023-05-12T19:21:13.680Z,5.70
2023-05-12T19:23:40.819Z,6.60
2023-05-12T19:26:09.244Z,7.67
2023-05-12T19:28:36.594Z,5.53
2023-05-12T19:31:03.731Z,4.17
2023-05-12T19:33:32.288Z,4.73
2023-05-12T19:35:59.565Z,4.37
2023-05-12T19:38:26.501Z,3.77
2023-05-12T19:40:53.492Z,4.73
2023-05-12T19:43:20.518Z,4.47
2023-05-12T19:45:47.811Z,4.30
2023-05-12T19:48:15.285Z,4.47
2023-05-12T19:50:42.206Z,5.00
2023-05-12T19:53:09.264Z,4.63
2023-05-12T19:55:36.772Z,4.97
2023-05-12T19:58:03.693Z,5.23
2023-05-12T20:00:30.714Z,4.80
2023-05-12T20:02:57.852Z,4.57
2023-05-12T20:05:25.490Z,4.60
2023-05-12T20:07:52.484Z,5.10
2023-05-12T20:10:19.589Z,4.63
2023-05-12T20:12:46.562Z,4.90
2023-05-12T20:15:13.722Z,4.57
2023-05-12T20:17:40.884Z,4.73
2023-05-12T20:20:08.524Z,4.60
2023-05-12T20:22:35.608Z,4.83
2023-05-12T20:25:04.697Z,5.10
2023-05-12T20:27:32.940Z,4.93
2023-05-12T20:30:00.238Z,5.37
2023-05-12T20:32:27.300Z,5.17
2023-05-12T20:34:54.330Z,5.80
2023-05-12T20:37:21.329Z,5.33
2023-05-12T20:39:48.422Z,5.33
2023-05-12T20:42:15.285Z,5.53
2023-05-12T20:44:42.804Z,5.07
2023-05-12T20:47:10.472Z,5.27
2023-05-12T20:49:37.450Z,5.50
2023-05-12T20:52:05.113Z,5.67
2023-05-12T20:54:32.296Z,6.30
2023-05-12T20:56:59.464Z,5.47
2023-05-12T20:59:26.299Z,5.20
2023-05-12T21:01:53.370Z,5.83
2023-05-12T21:04:20.506Z,5.63
2023-05-12T21:06:47.581Z,6.23
2023-05-12T21:09:14.502Z,5.90
2023-05-12T21:11:41.815Z,5.67
2023-05-12T21:14:09.068Z,6.10
2023-05-12T21:16:36.469Z,6.40
2023-05-12T21:19:03.459Z,6.30
2023-05-12T21:21:30.296Z,6.23
2023-05-12T21:23:57.194Z,6.70
2023-05-12T21:26:23.984Z,5.93
2023-05-12T21:28:51.013Z,6.10
2023-05-12T21:31:18.162Z,6.37
2023-05-12T21:33:45.193Z,6.00
2023-05-12T21:36:12.331Z,6.50
2023-05-12T21:38:39.144Z,7.07
2023-05-12T21:41:06.262Z,7.07
2023-05-12T21:43:32.973Z,7.10
2023-05-12T21:46:04.316Z,6.33
2023-05-12T21:48:32.455Z,6.73
2023-05-12T21:51:01.045Z,6.43
2023-05-12T21:53:28.877Z,7.20
2023-05-12T21:55:56.007Z,6.60
2023-05-12T21:58:23.859Z,7.50
2023-05-12T22:00:54.046Z,7.20
2023-05-12T22:03:22.159Z,7.13
2023-05-12T22:05:49.188Z,7.67
2023-05-12T22:08:16.785Z,7.17
2023-05-12T22:10:43.764Z,7.53
2023-05-12T22:13:10.641Z,7.10
2023-05-12T22:15:37.512Z,6.97
2023-05-12T22:18:04.608Z,7.53
2023-05-12T22:20:31.707Z,7.63
2023-05-12T22:22:58.734Z,7.40
2023-05-12T22:25:25.934Z,7.10
2023-05-12T22:27:52.892Z,7.47
2023-05-12T22:30:20.648Z,7.40
2023-05-12T22:32:48.124Z,8.20
2023-05-12T22:35:15.251Z,7.87
2023-05-12T22:37:42.414Z,8.10
2023-05-12T22:40:09.864Z,7.60
2023-05-12T22:42:36.849Z,7.73
2023-05-12T22:45:05.032Z,8.10
2023-05-12T22:47:32.554Z,7.93
2023-05-12T22:49:59.965Z,7.30
2023-05-12T22:52:27.385Z,7.47
2023-05-12T22:54:55.318Z,7.70
2023-05-12T22:57:22.497Z,7.37
2023-05-12T22:59:49.473Z,7.47
2023-05-12T23:02:16.629Z,7.63
2023-05-12T23:04:44.229Z,7.80
2023-05-12T23:07:11.178Z,7.90
2023-05-12T23:09:38.283Z,7.60
2023-05-12T23:12:05.941Z,7.10
2023-05-12T23:14:33.012Z,8.83
2023-05-12T23:17:00.227Z,8.33
2023-05-12T23:19:27.199Z,7.77
2023-05-12T23:21:54.259Z,8.23
2023-05-12T23:24:21.952Z,8.30
2023-05-12T23:26:49.703Z,8.33
2023-05-12T23:29:16.912Z,8.50
2023-05-12T23:31:43.840Z,8.80
2023-05-12T23:34:10.784Z,9.37
2023-05-12T23:36:37.772Z,8.80
2023-05-12T23:39:04.744Z,8.53
2023-05-12T23:41:32.073Z,8.80
2023-05-12T23:43:59.155Z,8.90
2023-05-12T23:46:26.276Z,8.70
2023-05-12T23:48:56.512Z,9.07
2023-05-12T23:51:24.192Z,9.00
2023-05-12T23:53:52.125Z,9.10
2023-05-12T23:56:18.872Z,10.10
2023-05-12T23:58:47.193Z,9.47
